sensor_id;sensor_type;location;lat;lon;timestamp;P1;durP1;ratioP1;P2;durP2;ratioP2
6135;SDS011;24008;42.664;23.372;2023-04-07T00:01:51;19.07;;;12.77;;
6135;SDS011;24008;42.664;23.372;2023-04-07T00:04:18;20.50;;;12.73;;
6135;SDS011;24008;42.664;23.372;2023-04-07T00:06:45;22.70;;;12.57;;
6135;SDS011;24008;42.664;23.372;2023-04-07T00:09:11;18.77;;;12.17;;
6135;SDS011;24008;42.664;23.372;2023-04-07T00:11:38;18.60;;;12.80;;
6135;SDS011;24008;42.664;23.372;2023-04-07T00:14:06;17.03;;;12.03;;
6135;SDS011;24008;42.664;23.372;2023-04-07T00:16:34;20.23;;;13.07;;
6135;SDS011;24008;42.664;23.372;2023-04-07T00:19:01;17.63;;;12.30;;
6135;SDS011;24008;42.664;23.372;2023-04-07T00:21:28;19.20;;;12.83;;
6135;SDS011;24008;42.664;23.372;2023-04-07T00:23:55;20.97;;;13.93;;
6135;SDS011;24008;42.664;23.372;2023-04-07T00:26:21;17.70;;;12.03;;
6135;SDS011;24008;42.664;23.372;2023-04-07T00:28:49;20.90;;;13.47;;
6135;SDS011;24008;42.664;23.372;2023-04-07T00:31:16;18.97;;;12.83;;
6135;SDS011;24008;42.664;23.372;2023-04-07T00:33:44;19.10;;;13.10;;
6135;SDS011;24008;42.664;23.372;2023-04-07T00:36:12;17.73;;;13.03;;
6135;SDS011;24008;42.664;23.372;2023-04-07T00:38:39;16.47;;;12.10;;
6135;SDS011;24008;42.664;23.372;2023-04-07T00:41:06;18.70;;;12.90;;
6135;SDS011;24008;42.664;23.372;2023-04-07T00:43:33;25.10;;;15.57;;
6135;SDS011;24008;42.664;23.372;2023-04-07T00:46:00;31.53;;;19.47;;
6135;SDS011;24008;42.664;23.372;2023-04-07T00:48:27;37.63;;;22.23;;
6135;SDS011;24008;42.664;23.372;2023-04-07T00:50:56;32.73;;;20.90;;
6135;SDS011;24008;42.664;23.372;2023-04-07T00:53:23;37.47;;;21.03;;
6135;SDS011;24008;42.664;23.372;2023-04-07T00:55:50;37.53;;;21.67;;
6135;SDS011;24008;42.664;23.372;2023-04-07T00:58:17;36.03;;;20.37;;
6135;SDS011;24008;42.664;23.372;2023-04-07T01:00:44;34.07;;;20.93;;
6135;SDS011;24008;42.664;23.372;2023-04-07T01:03:17;33.67;;;20.23;;
6135;SDS011;24008;42.664;23.372;2023-04-07T01:05:49;37.23;;;21.43;;
6135;SDS011;24008;42.664;23.372;2023-04-07T01:08:23;36.10;;;20.97;;
6135;SDS011;24008;42.664;23.372;2023-04-07T01:10:57;36.40;;;21.20;;
6135;SDS011;24008;42.664;23.372;2023-04-07T01:13:33;37.00;;;21.23;;
6135;SDS011;24008;42.664;23.372;2023-04-07T01:16:04;32.73;;;20.07;;
6135;SDS011;24008;42.664;23.372;2023-04-07T01:18:37;39.07;;;20.70;;
6135;SDS011;24008;42.664;23.372;2023-04-07T01:21:06;33.23;;;20.40;;
6135;SDS011;24008;42.664;23.372;2023-04-07T01:23:51;35.77;;;20.63;;
6135;SDS011;24008;42.664;23.372;2023-04-07T01:26:31;32.50;;;19.23;;
6135;SDS011;24008;42.664;23.372;2023-04-07T01:31:57;33.57;;;19.20;;
6135;SDS011;24008;42.664;23.372;2023-04-07T01:34:26;31.03;;;18.37;;
6135;SDS011;24008;42.664;23.372;2023-04-07T01:36:55;32.83;;;20.13;;
6135;SDS011;24008;42.664;23.372;2023-04-07T01:39:25;33.13;;;20.10;;
6135;SDS011;24008;42.664;23.372;2023-04-07T01:41:53;33.87;;;19.83;;
6135;SDS011;24008;42.664;23.372;2023-04-07T01:44:21;32.00;;;19.97;;
6135;SDS011;24008;42.664;23.372;2023-04-07T01:46:50;33.50;;;20.20;;
6135;SDS011;24008;42.664;23.372;2023-04-07T01:49:17;32.27;;;19.23;;
6135;SDS011;24008;42.664;23.372;2023-04-07T01:51:45;36.07;;;19.97;;
6135;SDS011;24008;42.664;23.372;2023-04-07T01:54:14;34.20;;;21.53;;
6135;SDS011;24008;42.664;23.372;2023-04-07T01:56:41;33.03;;;20.07;;
6135;SDS011;24008;42.664;23.372;2023-04-07T01:59:08;34.13;;;19.80;;
6135;SDS011;24008;42.664;23.372;2023-04-07T02:01:35;31.77;;;19.30;;
6135;SDS011;24008;42.664;23.372;2023-04-07T02:04:06;33.90;;;20.20;;
6135;SDS011;24008;42.664;23.372;2023-04-07T02:06:39;33.00;;;18.80;;
6135;SDS011;24008;42.664;23.372;2023-04-07T02:09:09;29.60;;;18.70;;
6135;SDS011;24008;42.664;23.372;2023-04-07T02:11:38;36.83;;;20.47;;
6135;SDS011;24008;42.664;23.372;2023-04-07T02:14:07;30.93;;;19.63;;
6135;SDS011;24008;42.664;23.372;2023-04-07T02:16:35;32.33;;;19.77;;
6135;SDS011;24008;42.664;23.372;2023-04-07T02:19:02;32.07;;;19.30;;
6135;SDS011;24008;42.664;23.372;2023-04-07T02:21:32;32.63;;;19.27;;
6135;SDS011;24008;42.664;23.372;2023-04-07T02:24:00;30.87;;;18.70;;
6135;SDS011;24008;42.664;23.372;2023-04-07T02:26:31;35.80;;;19.73;;
6135;SDS011;24008;42.664;23.372;2023-04-07T02:28:59;30.23;;;18.67;;
6135;SDS011;24008;42.664;23.372;2023-04-07T02:31:26;32.37;;;19.10;;
6135;SDS011;24008;42.664;23.372;2023-04-07T02:33:53;31.23;;;18.30;;
6135;SDS011;24008;42.664;23.372;2023-04-07T02:36:21;33.73;;;19.40;;
6135;SDS011;24008;42.664;23.372;2023-04-07T02:38:47;29.17;;;18.33;;
6135;SDS011;24008;42.664;23.372;2023-04-07T02:41:14;30.07;;;18.23;;
6135;SDS011;24008;42.664;23.372;2023-04-07T02:43:41;31.07;;;19.07;;
6135;SDS011;24008;42.664;23.372;2023-04-07T02:46:07;30.30;;;18.67;;
6135;SDS011;24008;42.664;23.372;2023-04-07T02:48:34;28.50;;;19.07;;
6135;SDS011;24008;42.664;23.372;2023-04-07T02:51:01;29.50;;;18.43;;
6135;SDS011;24008;42.664;23.372;2023-04-07T02:53:29;30.57;;;18.40;;
6135;SDS011;24008;42.664;23.372;2023-04-07T02:55:57;30.70;;;20.13;;
6135;SDS011;24008;42.664;23.372;2023-04-07T02:58:24;33.63;;;20.20;;
6135;SDS011;24008;42.664;23.372;2023-04-07T03:00:50;32.70;;;19.57;;
6135;SDS011;24008;42.664;23.372;2023-04-07T03:03:17;30.77;;;18.93;;
6135;SDS011;24008;42.664;23.372;2023-04-07T03:05:44;29.87;;;18.00;;
6135;SDS011;24008;42.664;23.372;2023-04-07T03:08:11;32.50;;;18.37;;
6135;SDS011;24008;42.664;23.372;2023-04-07T03:10:39;29.77;;;18.83;;
6135;SDS011;24008;42.664;23.372;2023-04-07T03:13:06;31.23;;;19.17;;
6135;SDS011;24008;42.664;23.372;2023-04-07T03:15:33;27.70;;;17.50;;
6135;SDS011;24008;42.664;23.372;2023-04-07T03:18:00;31.97;;;19.20;;
6135;SDS011;24008;42.664;23.372;2023-04-07T03:20:27;30.80;;;18.67;;
6135;SDS011;24008;42.664;23.372;2023-04-07T03:22:54;29.93;;;18.13;;
6135;SDS011;24008;42.664;23.372;2023-04-07T03:25:21;31.93;;;19.33;;
6135;SDS011;24008;42.664;23.372;2023-04-07T03:27:49;30.70;;;19.73;;
6135;SDS011;24008;42.664;23.372;2023-04-07T03:30:16;28.87;;;19.03;;
6135;SDS011;24008;42.664;23.372;2023-04-07T03:32:43;29.87;;;18.13;;
6135;SDS011;24008;42.664;23.372;2023-04-07T03:35:10;30.57;;;18.07;;
6135;SDS011;24008;42.664;23.372;2023-04-07T03:37:37;31.27;;;18.80;;
6135;SDS011;24008;42.664;23.372;2023-04-07T03:40:04;47.43;;;25.97;;
6135;SDS011;24008;42.664;23.372;2023-04-07T03:42:31;31.40;;;20.00;;
6135;SDS011;24008;42.664;23.372;2023-04-07T03:44:59;29.10;;;17.80;;
6135;SDS011;24008;42.664;23.372;2023-04-07T03:47:26;18.67;;;13.03;;
6135;SDS011;24008;42.664;23.372;2023-04-07T03:49:53;22.97;;;13.93;;
6135;SDS011;24008;42.664;23.372;2023-04-07T03:52:20;19.37;;;12.83;;
6135;SDS011;24008;42.664;23.372;2023-04-07T03:54:47;21.50;;;12.90;;
6135;SDS011;24008;42.664;23.372;2023-04-07T03:57:13;19.93;;;13.30;;
6135;SDS011;24008;42.664;23.372;2023-04-07T03:59:40;19.27;;;12.87;;
6135;SDS011;24008;42.664;23.372;2023-04-07T04:02:08;33.23;;;19.60;;
6135;SDS011;24008;42.664;23.372;2023-04-07T04:04:36;33.23;;;20.90;;
6135;SDS011;24008;42.664;23.372;2023-04-07T04:07:03;34.70;;;21.07;;
6135;SDS011;24008;42.664;23.372;2023-04-07T04:09:30;35.87;;;21.23;;
6135;SDS011;24008;42.664;23.372;2023-04-07T04:11:57;38.20;;;22.40;;
6135;SDS011;24008;42.664;23.372;2023-04-07T04:14:24;36.07;;;21.43;;
6135;SDS011;24008;42.664;23.372;2023-04-07T04:16:52;38.77;;;21.43;;
6135;SDS011;24008;42.664;23.372;2023-04-07T04:19:20;42.57;;;22.37;;
6135;SDS011;24008;42.664;23.372;2023-04-07T04:21:47;38.70;;;21.53;;
6135;SDS011;24008;42.664;23.372;2023-04-07T04:24:14;37.40;;;20.83;;
6135;SDS011;24008;42.664;23.372;2023-04-07T04:26:40;31.87;;;18.80;;
6135;SDS011;24008;42.664;23.372;2023-04-07T04:29:07;32.43;;;19.20;;
6135;SDS011;24008;42.664;23.372;2023-04-07T04:31:34;37.43;;;19.70;;
6135;SDS011;24008;42.664;23.372;2023-04-07T04:34:01;35.60;;;19.03;;
6135;SDS011;24008;42.664;23.372;2023-04-07T04:36:29;33.83;;;18.93;;
6135;SDS011;24008;42.664;23.372;2023-04-07T04:38:56;34.97;;;19.40;;
6135;SDS011;24008;42.664;23.372;2023-04-07T04:41:23;32.07;;;19.07;;
6135;SDS011;24008;42.664;23.372;2023-04-07T04:43:50;30.73;;;20.03;;
6135;SDS011;24008;42.664;23.372;2023-04-07T04:46:17;31.90;;;18.70;;
6135;SDS011;24008;42.664;23.372;2023-04-07T04:48:43;29.23;;;18.83;;
6135;SDS011;24008;42.664;23.372;2023-04-07T04:51:10;33.93;;;18.37;;
6135;SDS011;24008;42.664;23.372;2023-04-07T04:53:39;28.73;;;17.53;;
6135;SDS011;24008;42.664;23.372;2023-04-07T04:56:06;31.70;;;19.17;;
6135;SDS011;24008;42.664;23.372;2023-04-07T04:58:33;31.37;;;17.70;;
6135;SDS011;24008;42.664;23.372;2023-04-07T05:01:00;29.60;;;17.23;;
6135;SDS011;24008;42.664;23.372;2023-04-07T05:03:27;34.13;;;16.97;;
6135;SDS011;24008;42.664;23.372;2023-04-07T05:05:54;29.80;;;18.53;;
6135;SDS011;24008;42.664;23.372;2023-04-07T05:08:21;29.47;;;17.90;;
6135;SDS011;24008;42.664;23.372;2023-04-07T05:10:49;33.43;;;19.00;;
6135;SDS011;24008;42.664;23.372;2023-04-07T05:13:16;28.97;;;17.70;;
6135;SDS011;24008;42.664;23.372;2023-04-07T05:15:43;33.67;;;19.27;;
6135;SDS011;24008;42.664;23.372;2023-04-07T05:18:09;33.67;;;18.90;;
6135;SDS011;24008;42.664;23.372;2023-04-07T05:20:36;30.27;;;18.60;;
6135;SDS011;24008;42.664;23.372;2023-04-07T05:23:03;35.23;;;20.50;;
6135;SDS011;24008;42.664;23.372;2023-04-07T05:25:30;33.90;;;20.27;;
6135;SDS011;24008;42.664;23.372;2023-04-07T05:27:59;35.27;;;20.80;;
6135;SDS011;24008;42.664;23.372;2023-04-07T05:30:26;34.97;;;20.33;;
6135;SDS011;24008;42.664;23.372;2023-04-07T05:32:53;35.10;;;20.63;;
6135;SDS011;24008;42.664;23.372;2023-04-07T05:35:19;37.47;;;19.90;;
6135;SDS011;24008;42.664;23.372;2023-04-07T05:37:46;31.93;;;18.37;;
6135;SDS011;24008;42.664;23.372;2023-04-07T05:40:13;30.67;;;20.47;;
6135;SDS011;24008;42.664;23.372;2023-04-07T05:42:40;32.70;;;20.63;;
6135;SDS011;24008;42.664;23.372;2023-04-07T05:45:09;31.17;;;21.40;;
6135;SDS011;24008;42.664;23.372;2023-04-07T05:47:36;32.40;;;20.07;;
6135;SDS011;24008;42.664;23.372;2023-04-07T05:50:03;29.50;;;19.83;;
6135;SDS011;24008;42.664;23.372;2023-04-07T05:52:30;32.23;;;20.83;;
6135;SDS011;24008;42.664;23.372;2023-04-07T05:54:57;26.90;;;19.30;;
6135;SDS011;24008;42.664;23.372;2023-04-07T05:57:24;31.53;;;19.93;;
6135;SDS011;24008;42.664;23.372;2023-04-07T05:59:52;30.23;;;19.33;;
6135;SDS011;24008;42.664;23.372;2023-04-07T06:02:20;30.13;;;18.63;;
6135;SDS011;24008;42.664;23.372;2023-04-07T06:04:47;30.87;;;19.00;;
6135;SDS011;24008;42.664;23.372;2023-04-07T06:07:13;28.97;;;18.40;;
6135;SDS011;24008;42.664;23.372;2023-04-07T06:09:40;29.23;;;18.40;;
6135;SDS011;24008;42.664;23.372;2023-04-07T06:12:07;28.47;;;19.47;;
6135;SDS011;24008;42.664;23.372;2023-04-07T06:14:36;28.70;;;19.93;;
6135;SDS011;24008;42.664;23.372;2023-04-07T06:17:03;27.73;;;18.03;;
6135;SDS011;24008;42.664;23.372;2023-04-07T06:19:32;26.90;;;18.33;;
6135;SDS011;24008;42.664;23.372;2023-04-07T06:21:59;31.70;;;17.07;;
6135;SDS011;24008;42.664;23.372;2023-04-07T06:24:25;28.70;;;17.80;;
6135;SDS011;24008;42.664;23.372;2023-04-07T06:26:52;22.33;;;15.80;;
6135;SDS011;24008;42.664;23.372;2023-04-07T06:29:20;24.93;;;17.90;;
6135;SDS011;24008;42.664;23.372;2023-04-07T06:31:47;26.07;;;18.70;;
6135;SDS011;24008;42.664;23.372;2023-04-07T06:34:14;27.07;;;17.83;;
6135;SDS011;24008;42.664;23.372;2023-04-07T06:36:42;22.53;;;16.23;;
6135;SDS011;24008;42.664;23.372;2023-04-07T06:39:08;29.40;;;17.90;;
6135;SDS011;24008;42.664;23.372;2023-04-07T06:41:35;25.47;;;17.73;;
6135;SDS011;24008;42.664;23.372;2023-04-07T06:44:03;26.93;;;18.43;;
6135;SDS011;24008;42.664;23.372;2023-04-07T06:46:30;27.43;;;16.50;;
6135;SDS011;24008;42.664;23.372;2023-04-07T06:48:57;28.37;;;18.97;;
6135;SDS011;24008;42.664;23.372;2023-04-07T06:51:23;25.57;;;17.27;;
6135;SDS011;24008;42.664;23.372;2023-04-07T06:53:52;27.70;;;18.63;;
6135;SDS011;24008;42.664;23.372;2023-04-07T06:56:19;28.80;;;18.13;;
6135;SDS011;24008;42.664;23.372;2023-04-07T06:58:46;31.03;;;18.77;;
6135;SDS011;24008;42.664;23.372;2023-04-07T07:01:12;29.13;;;18.10;;
6135;SDS011;24008;42.664;23.372;2023-04-07T07:03:40;25.47;;;18.43;;
6135;SDS011;24008;42.664;23.372;2023-04-07T07:06:07;27.73;;;19.00;;
6135;SDS011;24008;42.664;23.372;2023-04-07T07:08:34;32.23;;;18.63;;
6135;SDS011;24008;42.664;23.372;2023-04-07T07:11:02;23.97;;;17.43;;
6135;SDS011;24008;42.664;23.372;2023-04-07T07:13:29;25.73;;;16.60;;
6135;SDS011;24008;42.664;23.372;2023-04-07T07:15:55;24.27;;;15.40;;
6135;SDS011;24008;42.664;23.372;2023-04-07T07:18:22;30.40;;;16.27;;
6135;SDS011;24008;42.664;23.372;2023-04-07T07:20:49;25.23;;;17.17;;
6135;SDS011;24008;42.664;23.372;2023-04-07T07:23:16;21.77;;;15.73;;
6135;SDS011;24008;42.664;23.372;2023-04-07T07:25:43;20.30;;;15.33;;
6135;SDS011;24008;42.664;23.372;2023-04-07T07:28:12;19.30;;;15.47;;
6135;SDS011;24008;42.664;23.372;2023-04-07T07:30:39;23.33;;;15.90;;
6135;SDS011;24008;42.664;23.372;2023-04-07T07:33:06;23.10;;;16.50;;
6135;SDS011;24008;42.664;23.372;2023-04-07T07:35:33;24.70;;;16.17;;
6135;SDS011;24008;42.664;23.372;2023-04-07T07:38:02;20.17;;;13.27;;
6135;SDS011;24008;42.664;23.372;2023-04-07T07:40:28;19.97;;;12.10;;
6135;SDS011;24008;42.664;23.372;2023-04-07T07:42:55;12.33;;;10.67;;
6135;SDS011;24008;42.664;23.372;2023-04-07T07:45:23;15.60;;;10.33;;
6135;SDS011;24008;42.664;23.372;2023-04-07T07:47:50;11.80;;;9.10;;
6135;SDS011;24008;42.664;23.372;2023-04-07T07:50:17;12.03;;;8.97;;
6135;SDS011;24008;42.664;23.372;2023-04-07T07:52:44;14.03;;;9.47;;
6135;SDS011;24008;42.664;23.372;2023-04-07T07:55:11;11.73;;;8.13;;
6135;SDS011;24008;42.664;23.372;2023-04-07T07:57:38;10.17;;;8.20;;
6135;SDS011;24008;42.664;23.372;2023-04-07T08:00:06;13.60;;;9.47;;
6135;SDS011;24008;42.664;23.372;2023-04-07T08:02:34;13.80;;;9.47;;
6135;SDS011;24008;42.664;23.372;2023-04-07T08:05:01;12.53;;;8.03;;
6135;SDS011;24008;42.664;23.372;2023-04-07T08:07:28;10.87;;;8.30;;
6135;SDS011;24008;42.664;23.372;2023-04-07T08:09:55;10.67;;;8.30;;
6135;SDS011;24008;42.664;23.372;2023-04-07T08:12:21;13.03;;;8.53;;
6135;SDS011;24008;42.664;23.372;2023-04-07T08:14:48;13.07;;;8.70;;
6135;SDS011;24008;42.664;23.372;2023-04-07T08:17:15;11.90;;;8.70;;
6135;SDS011;24008;42.664;23.372;2023-04-07T08:19:43;10.47;;;8.43;;
6135;SDS011;24008;42.664;23.372;2023-04-07T08:22:10;8.57;;;7.13;;
6135;SDS011;24008;42.664;23.372;2023-04-07T08:24:37;10.53;;;8.00;;
6135;SDS011;24008;42.664;23.372;2023-04-07T08:27:04;9.53;;;7.80;;
6135;SDS011;24008;42.664;23.372;2023-04-07T08:29:31;10.17;;;7.63;;
6135;SDS011;24008;42.664;23.372;2023-04-07T08:31:57;11.50;;;7.83;;
6135;SDS011;24008;42.664;23.372;2023-04-07T08:34:24;12.23;;;8.00;;
6135;SDS011;24008;42.664;23.372;2023-04-07T08:36:52;10.53;;;8.10;;
6135;SDS011;24008;42.664;23.372;2023-04-07T08:39:19;10.90;;;7.73;;
6135;SDS011;24008;42.664;23.372;2023-04-07T08:41:46;10.00;;;7.77;;
6135;SDS011;24008;42.664;23.372;2023-04-07T08:44:15;20.47;;;13.67;;
6135;SDS011;24008;42.664;23.372;2023-04-07T08:46:43;11.87;;;7.90;;
6135;SDS011;24008;42.664;23.372;2023-04-07T08:49:11;9.27;;;8.20;;
6135;SDS011;24008;42.664;23.372;2023-04-07T08:54:12;11.57;;;7.57;;
6135;SDS011;24008;42.664;23.372;2023-04-07T08:56:41;9.57;;;7.33;;
6135;SDS011;24008;42.664;23.372;2023-04-07T08:59:09;9.67;;;7.50;;
6135;SDS011;24008;42.664;23.372;2023-04-07T09:01:36;8.73;;;7.23;;
6135;SDS011;24008;42.664;23.372;2023-04-07T09:04:04;10.33;;;7.33;;
6135;SDS011;24008;42.664;23.372;2023-04-07T09:06:32;10.13;;;7.20;;
6135;SDS011;24008;42.664;23.372;2023-04-07T09:08:59;11.63;;;7.00;;
6135;SDS011;24008;42.664;23.372;2023-04-07T09:11:28;10.10;;;7.47;;
6135;SDS011;24008;42.664;23.372;2023-04-07T09:13:55;10.27;;;8.00;;
6135;SDS011;24008;42.664;23.372;2023-04-07T09:16:23;10.23;;;7.70;;
6135;SDS011;24008;42.664;23.372;2023-04-07T09:18:51;10.97;;;7.57;;
6135;SDS011;24008;42.664;23.372;2023-04-07T09:21:18;10.90;;;7.87;;
6135;SDS011;24008;42.664;23.372;2023-04-07T09:23:45;11.53;;;8.43;;
6135;SDS011;24008;42.664;23.372;2023-04-07T09:26:20;10.27;;;7.50;;
6135;SDS011;24008;42.664;23.372;2023-04-07T09:28:51;10.60;;;8.00;;
6135;SDS011;24008;42.664;23.372;2023-04-07T09:31:19;9.33;;;8.07;;
6135;SDS011;24008;42.664;23.372;2023-04-07T09:33:47;12.03;;;9.73;;
6135;SDS011;24008;42.664;23.372;2023-04-07T09:36:14;12.80;;;10.20;;
6135;SDS011;24008;42.664;23.372;2023-04-07T09:38:42;24.47;;;14.83;;
6135;SDS011;24008;42.664;23.372;2023-04-07T09:41:10;17.80;;;12.67;;
6135;SDS011;24008;42.664;23.372;2023-04-07T09:43:39;12.17;;;9.83;;
6135;SDS011;24008;42.664;23.372;2023-04-07T09:46:10;11.77;;;8.57;;
6135;SDS011;24008;42.664;23.372;2023-04-07T09:48:39;12.50;;;7.83;;
6135;SDS011;24008;42.664;23.372;2023-04-07T09:51:08;10.23;;;8.00;;
6135;SDS011;24008;42.664;23.372;2023-04-07T09:53:43;12.80;;;8.00;;
6135;SDS011;24008;42.664;23.372;2023-04-07T09:56:11;14.50;;;9.03;;
6135;SDS011;24008;42.664;23.372;2023-04-07T09:58:40;10.83;;;8.93;;
6135;SDS011;24008;42.664;23.372;2023-04-07T10:01:08;12.80;;;9.30;;
6135;SDS011;24008;42.664;23.372;2023-04-07T10:03:38;12.20;;;9.33;;
6135;SDS011;24008;42.664;23.372;2023-04-07T10:06:05;14.33;;;9.90;;
6135;SDS011;24008;42.664;23.372;2023-04-07T10:08:34;12.47;;;9.73;;
6135;SDS011;24008;42.664;23.372;2023-04-07T10:11:02;12.73;;;9.70;;
6135;SDS011;24008;42.664;23.372;2023-04-07T10:13:31;13.30;;;10.33;;
6135;SDS011;24008;42.664;23.372;2023-04-07T10:15:58;10.90;;;9.07;;
6135;SDS011;24008;42.664;23.372;2023-04-07T10:18:30;10.33;;;8.73;;
6135;SDS011;24008;42.664;23.372;2023-04-07T10:20:59;11.77;;;8.43;;
6135;SDS011;24008;42.664;23.372;2023-04-07T10:23:40;12.83;;;9.13;;
6135;SDS011;24008;42.664;23.372;2023-04-07T10:26:14;10.47;;;9.30;;
6135;SDS011;24008;42.664;23.372;2023-04-07T10:28:43;11.27;;;9.23;;
6135;SDS011;24008;42.664;23.372;2023-04-07T10:31:14;15.60;;;10.03;;
6135;SDS011;24008;42.664;23.372;2023-04-07T10:33:47;11.83;;;9.47;;
6135;SDS011;24008;42.664;23.372;2023-04-07T10:36:15;14.07;;;9.40;;
6135;SDS011;24008;42.664;23.372;2023-04-07T10:41:43;13.53;;;9.80;;
6135;SDS011;24008;42.664;23.372;2023-04-07T10:47:11;13.47;;;10.53;;
6135;SDS011;24008;42.664;23.372;2023-04-07T10:49:40;15.60;;;9.80;;
6135;SDS011;24008;42.664;23.372;2023-04-07T10:52:43;16.40;;;11.70;;
6135;SDS011;24008;42.664;23.372;2023-04-07T10:55:27;13.80;;;11.00;;
6135;SDS011;24008;42.664;23.372;2023-04-07T11:00:42;15.50;;;11.70;;
6135;SDS011;24008;42.664;23.372;2023-04-07T11:03:58;15.07;;;10.63;;
6135;SDS011;24008;42.664;23.372;2023-04-07T11:06:27;15.50;;;11.23;;
6135;SDS011;24008;42.664;23.372;2023-04-07T11:08:54;14.03;;;10.63;;
6135;SDS011;24008;42.664;23.372;2023-04-07T11:11:37;14.03;;;10.50;;
6135;SDS011;24008;42.664;23.372;2023-04-07T11:14:06;15.73;;;10.47;;
6135;SDS011;24008;42.664;23.372;2023-04-07T11:16:39;12.40;;;10.27;;
6135;SDS011;24008;42.664;23.372;2023-04-07T11:19:07;12.40;;;10.00;;
6135;SDS011;24008;42.664;23.372;2023-04-07T11:21:36;12.87;;;10.70;;
6135;SDS011;24008;42.664;23.372;2023-04-07T11:24:03;15.63;;;10.47;;
6135;SDS011;24008;42.664;23.372;2023-04-07T11:26:35;13.33;;;10.90;;
6135;SDS011;24008;42.664;23.372;2023-04-07T11:29:03;15.93;;;11.80;;
6135;SDS011;24008;42.664;23.372;2023-04-07T11:31:30;14.60;;;11.07;;
6135;SDS011;24008;42.664;23.372;2023-04-07T11:33:57;15.53;;;11.23;;
6135;SDS011;24008;42.664;23.372;2023-04-07T11:36:26;15.90;;;10.77;;
6135;SDS011;24008;42.664;23.372;2023-04-07T11:38:56;14.33;;;11.27;;
6135;SDS011;24008;42.664;23.372;2023-04-07T11:41:24;12.97;;;10.40;;
6135;SDS011;24008;42.664;23.372;2023-04-07T11:44:08;13.60;;;10.47;;
6135;SDS011;24008;42.664;23.372;2023-04-07T11:46:36;70.97;;;15.83;;
6135;SDS011;24008;42.664;23.372;2023-04-07T11:49:18;17.87;;;11.47;;
6135;SDS011;24008;42.664;23.372;2023-04-07T11:52:04;14.73;;;11.57;;
6135;SDS011;24008;42.664;23.372;2023-04-07T11:54:40;16.53;;;11.50;;
6135;SDS011;24008;42.664;23.372;2023-04-07T11:57:08;15.03;;;11.63;;
6135;SDS011;24008;42.664;23.372;2023-04-07T11:59:36;13.87;;;10.97;;
6135;SDS011;24008;42.664;23.372;2023-04-07T12:02:03;16.20;;;11.77;;
6135;SDS011;24008;42.664;23.372;2023-04-07T12:04:30;18.77;;;12.00;;
6135;SDS011;24008;42.664;23.372;2023-04-07T12:07:05;17.10;;;12.10;;
6135;SDS011;24008;42.664;23.372;2023-04-07T12:09:33;17.57;;;12.37;;
6135;SDS011;24008;42.664;23.372;2023-04-07T12:12:03;13.17;;;11.73;;
6135;SDS011;24008;42.664;23.372;2023-04-07T12:14:31;20.57;;;12.20;;
6135;SDS011;24008;42.664;23.372;2023-04-07T12:16:58;13.97;;;12.47;;
6135;SDS011;24008;42.664;23.372;2023-04-07T12:19:27;15.60;;;12.00;;
6135;SDS011;24008;42.664;23.372;2023-04-07T12:21:56;17.73;;;12.00;;
6135;SDS011;24008;42.664;23.372;2023-04-07T12:24:23;15.57;;;12.40;;
6135;SDS011;24008;42.664;23.372;2023-04-07T12:26:50;17.10;;;11.87;;
6135;SDS011;24008;42.664;23.372;2023-04-07T12:29:18;16.13;;;12.33;;
6135;SDS011;24008;42.664;23.372;2023-04-07T12:31:45;16.53;;;12.73;;
6135;SDS011;24008;42.664;23.372;2023-04-07T12:34:12;18.47;;;12.63;;
6135;SDS011;24008;42.664;23.372;2023-04-07T12:36:39;15.93;;;12.63;;
6135;SDS011;24008;42.664;23.372;2023-04-07T12:39:05;15.60;;;11.67;;
6135;SDS011;24008;42.664;23.372;2023-04-07T12:41:32;14.97;;;11.70;;
6135;SDS011;24008;42.664;23.372;2023-04-07T12:43:59;14.73;;;12.80;;
6135;SDS011;24008;42.664;23.372;2023-04-07T12:46:27;16.83;;;12.00;;
6135;SDS011;24008;42.664;23.372;2023-04-07T12:48:54;15.90;;;12.70;;
6135;SDS011;24008;42.664;23.372;2023-04-07T12:51:20;18.73;;;13.00;;
6135;SDS011;24008;42.664;23.372;2023-04-07T12:53:47;17.60;;;12.07;;
6135;SDS011;24008;42.664;23.372;2023-04-07T12:56:14;19.97;;;13.93;;
6135;SDS011;24008;42.664;23.372;2023-04-07T12:58:41;17.40;;;12.47;;
6135;SDS011;24008;42.664;23.372;2023-04-07T13:01:08;16.20;;;12.23;;
6135;SDS011;24008;42.664;23.372;2023-04-07T13:03:36;17.67;;;12.83;;
6135;SDS011;24008;42.664;23.372;2023-04-07T13:06:03;17.90;;;13.27;;
6135;SDS011;24008;42.664;23.372;2023-04-07T13:08:30;16.97;;;12.40;;
6135;SDS011;24008;42.664;23.372;2023-04-07T13:11:00;15.37;;;11.53;;
6135;SDS011;24008;42.664;23.372;2023-04-07T13:13:30;16.87;;;12.07;;
6135;SDS011;24008;42.664;23.372;2023-04-07T13:15:56;14.67;;;11.07;;
6135;SDS011;24008;42.664;23.372;2023-04-07T13:18:23;16.10;;;12.13;;
6135;SDS011;24008;42.664;23.372;2023-04-07T13:20:52;16.13;;;12.10;;
6135;SDS011;24008;42.664;23.372;2023-04-07T13:23:18;15.67;;;12.03;;
6135;SDS011;24008;42.664;23.372;2023-04-07T13:25:45;17.60;;;12.00;;
6135;SDS011;24008;42.664;23.372;2023-04-07T13:28:12;19.30;;;13.60;;
6135;SDS011;24008;42.664;23.372;2023-04-07T13:30:42;15.53;;;12.27;;
6135;SDS011;24008;42.664;23.372;2023-04-07T13:33:09;16.97;;;12.27;;
6135;SDS011;24008;42.664;23.372;2023-04-07T13:35:36;19.57;;;12.57;;
6135;SDS011;24008;42.664;23.372;2023-04-07T13:38:04;15.37;;;12.40;;
6135;SDS011;24008;42.664;23.372;2023-04-07T13:40:30;18.53;;;12.90;;
6135;SDS011;24008;42.664;23.372;2023-04-07T13:42:57;33.37;;;14.10;;
6135;SDS011;24008;42.664;23.372;2023-04-07T13:45:25;23.43;;;12.80;;
6135;SDS011;24008;42.664;23.372;2023-04-07T13:47:51;18.83;;;12.73;;
6135;SDS011;24008;42.664;23.372;2023-04-07T13:50:19;20.03;;;13.67;;
6135;SDS011;24008;42.664;23.372;2023-04-07T13:52:46;17.93;;;13.17;;
6135;SDS011;24008;42.664;23.372;2023-04-07T13:55:14;16.30;;;12.87;;
6135;SDS011;24008;42.664;23.372;2023-04-07T13:57:41;18.90;;;12.80;;
6135;SDS011;24008;42.664;23.372;2023-04-07T14:00:08;15.43;;;11.63;;
6135;SDS011;24008;42.664;23.372;2023-04-07T14:02:35;17.47;;;12.27;;
6135;SDS011;24008;42.664;23.372;2023-04-07T14:05:02;16.73;;;11.67;;
6135;SDS011;24008;42.664;23.372;2023-04-07T14:07:29;16.93;;;12.57;;
6135;SDS011;24008;42.664;23.372;2023-04-07T14:09:56;16.03;;;11.53;;
6135;SDS011;24008;42.664;23.372;2023-04-07T14:12:24;17.23;;;12.33;;
6135;SDS011;24008;42.664;23.372;2023-04-07T14:14:51;16.53;;;12.57;;
6135;SDS011;24008;42.664;23.372;2023-04-07T14:17:18;18.33;;;12.40;;
6135;SDS011;24008;42.664;23.372;2023-04-07T14:19:46;18.63;;;13.17;;
6135;SDS011;24008;42.664;23.372;2023-04-07T14:22:13;15.83;;;12.57;;
6135;SDS011;24008;42.664;23.372;2023-04-07T14:24:40;17.93;;;13.20;;
6135;SDS011;24008;42.664;23.372;2023-04-07T14:27:07;17.03;;;12.03;;
6135;SDS011;24008;42.664;23.372;2023-04-07T14:29:36;19.33;;;13.03;;
6135;SDS011;24008;42.664;23.372;2023-04-07T14:32:03;19.10;;;12.60;;
6135;SDS011;24008;42.664;23.372;2023-04-07T14:34:30;16.40;;;12.30;;
6135;SDS011;24008;42.664;23.372;2023-04-07T14:36:56;17.60;;;13.07;;
6135;SDS011;24008;42.664;23.372;2023-04-07T14:39:23;15.53;;;12.03;;
6135;SDS011;24008;42.664;23.372;2023-04-07T14:41:51;16.03;;;11.70;;
6135;SDS011;24008;42.664;23.372;2023-04-07T14:44:18;16.27;;;13.00;;